Terminal Aerodrome Forecast
Issued by NWS Mt. Holly, NJ

Home | Current Version | Previous Version | Text Only | Print | Product List | Glossary On
Versions: 1 2 3 4 5 6 7 8 9 10 11 12 13 14 15 16 17 18 19
000
FTUS41 KPHI 111700
TAFILG
TAF
KILG 111734Z 1118/1218 09010KT P6SM SCT035 BKN120
     FM112100 13008KT P6SM BKN040
     FM120000 VRB03KT P6SM FEW060 SCT250
     FM120800 00000KT 5SM BR SCT250
     FM121200 15005KT P6SM FEW250
     FM121600 17008KT P6SM FEW050=

USA.gov is the U.S. government's official web portal to all federal, state and local government web resources and services.